Time;durP1;ratioP1;P1;durP2;ratioP2;P2;SDS_P1;SDS_P2;PMS_P1;PMS_P2;Temp;Humidity;BMP_temperature;BMP_pressure;BME280_temperature;BME280_humidity;BME280_pressure;Samples;Min_cycle;Max_cycle;Signal;HPM_P1;HPM_P2
2023/08/05 00:00:57;;;;;;;;;;;;;;;19.82;55.41;101625.38;4836265;29;113712;-79
2023/08/05 00:03:24;;;;;;;;;;;;;;;19.84;55.34;101618.03;4829608;29;124445;-78
2023/08/05 00:05:51;;;;;;;;;;;;;;;19.86;55.36;101621.47;4836835;29;124801;-79
2023/08/05 00:08:18;;;;;;;;;;;;;;;19.87;55.30;101623.19;4826004;29;114783;-79
2023/08/05 00:10:45;;;;;;;;;;;;;;;19.87;55.16;101614.25;4845725;29;112599;-79
2023/08/05 00:13:12;;;;;;;;;;;;;;;19.88;55.32;101621.38;4844415;29;124653;-78
2023/08/05 00:15:39;;;;;;;;;;;;;;;19.88;55.41;101619.53;4860652;29;123278;-78
2023/08/05 00:18:06;;;;;;;;;;;;;;;19.89;55.36;101615.00;4829447;29;113626;-78
2023/08/05 00:20:33;;;;;;;;;;;;;;;19.89;55.29;101610.50;4834761;29;113550;-78
2023/08/05 00:23:00;;;;;;;;;;;;;;;19.88;55.38;101608.78;4830489;29;124103;-79
2023/08/05 00:25:27;;;;;;;;;;;;;;;19.91;55.35;101608.56;4826057;29;123819;-79
2023/08/05 00:27:54;;;;;;;;;;;;;;;19.92;55.44;101604.03;4835911;29;114077;-79
2023/08/05 00:30:21;;;;;;;;;;;;;;;19.93;55.39;101605.75;4829454;29;114129;-78
2023/08/05 00:32:48;;;;;;;;;;;;;;;19.95;55.49;101611.91;4833238;29;123216;-79
2023/08/05 00:35:15;;;;;;;;;;;;;;;19.95;55.45;101615.44;4833243;29;124145;-79
2023/08/05 00:37:42;;;;;;;;;;;;;;;19.95;55.44;101607.38;4832978;29;114242;-79
2023/08/05 00:40:09;;;;;;;;;;;;;;;19.97;55.47;101605.44;4820665;29;114121;-78
2023/08/05 00:42:36;;;;;;;;;;;;;;;19.97;55.35;101607.28;4827117;29;124559;-79
2023/08/05 00:45:03;;;;;;;;;;;;;;;19.95;55.40;101604.69;4823786;29;123972;-79
2023/08/05 00:47:30;;;;;;;;;;;;;;;19.93;55.50;101598.56;4825569;29;114449;-79
2023/08/05 00:49:58;;;;;;;;;;;;;;;19.92;55.46;101593.28;4813187;29;112237;-79
2023/08/05 00:52:26;;;;;;;;;;;;;;;19.92;55.34;101598.66;4836963;29;125974;-79
2023/08/05 00:54:53;;;;;;;;;;;;;;;19.90;55.59;101593.41;4837007;29;125190;-79
2023/08/05 00:57:20;;;;;;;;;;;;;;;19.89;55.55;101589.00;4839046;29;113756;-79
2023/08/05 00:59:47;;;;;;;;;;;;;;;19.88;55.57;101589.97;4835967;29;113070;-79
2023/08/05 01:02:14;;;;;;;;;;;;;;;19.88;55.53;101592.66;4826986;29;124550;-78
2023/08/05 01:04:41;;;;;;;;;;;;;;;19.89;55.57;101583.63;4832676;29;123242;-79
2023/08/05 01:07:09;;;;;;;;;;;;;;;19.89;55.57;101578.25;4830988;29;114899;-79
2023/08/05 01:09:36;;;;;;;;;;;;;;;19.90;55.60;101574.56;4829770;29;115039;-78
2023/08/05 01:12:04;;;;;;;;;;;;;;;19.90;55.59;101574.56;4822481;29;124651;-78
2023/08/05 01:14:31;;;;;;;;;;;;;;;19.90;55.73;101569.19;4836511;29;123961;-79
2023/08/05 01:16:58;;;;;;;;;;;;;;;19.92;55.67;101567.25;4828586;29;114281;-79
2023/08/05 01:19:26;;;;;;;;;;;;;;;19.93;55.52;101557.34;4830721;29;112796;-78
2023/08/05 01:22:12;;;;;;;;;;;;;;;19.93;55.61;101560.91;4829804;29;123921;-79
2023/08/05 01:24:48;;;;;;;;;;;;;;;19.92;55.59;101556.50;4836193;29;123706;-79
2023/08/05 01:27:15;;;;;;;;;;;;;;;19.91;55.66;101554.81;4825524;29;113790;-79
2023/08/05 01:29:42;;;;;;;;;;;;;;;19.92;55.42;101550.28;4831554;29;113293;-78
2023/08/05 01:32:09;;;;;;;;;;;;;;;19.92;55.68;101556.50;4851749;28;125847;-79
2023/08/05 01:34:37;;;;;;;;;;;;;;;19.92;55.55;101551.13;4834835;29;124657;-79
2023/08/05 01:37:04;;;;;;;;;;;;;;;19.92;55.61;101551.13;4829034;29;114573;-79
2023/08/05 01:39:31;;;;;;;;;;;;;;;19.91;55.65;101556.59;4834224;29;115006;-79
2023/08/05 01:41:58;;;;;;;;;;;;;;;19.89;55.61;101548.69;4828441;29;124265;-79
2023/08/05 01:44:25;;;;;;;;;;;;;;;19.89;55.63;101556.75;4828149;29;122864;-79
2023/08/05 01:46:51;;;;;;;;;;;;;;;19.87;55.58;101553.28;4851839;29;113897;-79
2023/08/05 01:49:19;;;;;;;;;;;;;;;19.87;55.61;101553.28;4852672;29;113231;-79
2023/08/05 01:51:46;;;;;;;;;;;;;;;19.85;55.65;101549.84;4824574;29;124099;-79
2023/08/05 01:54:13;;;;;;;;;;;;;;;19.83;55.57;101551.78;4839132;29;122912;-79
2023/08/05 01:56:40;;;;;;;;;;;;;;;19.81;55.62;101551.91;4827576;29;116162;-79
2023/08/05 01:59:07;;;;;;;;;;;;;;;19.79;55.69;101561.06;4829031;29;114014;-79
2023/08/05 02:02:00;;;;;;;;;;;;;;;19.79;55.67;101555.69;4834054;29;124438;-79
2023/08/05 02:04:27;;;;;;;;;;;;;;;19.75;55.60;101559.56;4809549;29;124267;-78
2023/08/05 02:06:54;;;;;;;;;;;;;;;19.74;55.67;101552.47;4836378;29;114719;-79
2023/08/05 02:09:21;;;;;;;;;;;;;;;19.73;55.81;101556.13;4849658;29;113031;-79
2023/08/05 02:11:48;;;;;;;;;;;;;;;19.71;55.60;101552.66;4831075;29;124594;-79
2023/08/05 02:14:15;;;;;;;;;;;;;;;19.71;55.74;101552.66;4836288;29;123591;-79
2023/08/05 02:16:42;;;;;;;;;;;;;;;19.70;55.90;101553.63;4835158;29;114176;-79
2023/08/05 02:19:09;;;;;;;;;;;;;;;19.70;55.86;101561.69;4834278;29;113672;-79
2023/08/05 02:21:38;;;;;;;;;;;;;;;19.71;55.96;101558.91;4849829;29;122935;-79
2023/08/05 02:24:09;;;;;;;;;;;;;;;19.72;55.94;101559.75;4834522;29;124884;-79
2023/08/05 02:26:37;;;;;;;;;;;;;;;19.73;55.93;101561.50;4820754;29;115088;-79
2023/08/05 02:29:04;;;;;;;;;;;;;;;19.73;55.97;101556.13;4833226;29;116317;-79
2023/08/05 02:31:31;;;;;;;;;;;;;;;19.72;55.94;101559.75;4825918;29;124458;-79
2023/08/05 02:33:58;;;;;;;;;;;;;;;19.72;55.92;101551.69;4834709;29;123732;-79
2023/08/05 02:36:25;;;;;;;;;;;;;;;19.71;55.79;101558.91;4831568;29;113423;-78
2023/08/05 02:38:53;;;;;;;;;;;;;;;19.71;55.86;101541.91;4827528;29;113776;-79
2023/08/05 02:41:20;;;;;;;;;;;;;;;19.69;55.82;101544.72;4827468;29;123735;-79
2023/08/05 02:43:47;;;;;;;;;;;;;;;19.67;55.84;101529.69;4836526;29;123675;-79
2023/08/05 02:46:14;;;;;;;;;;;;;;;19.64;55.93;101526.22;4824102;29;115386;-78
2023/08/05 02:48:41;;;;;;;;;;;;;;;19.66;56.03;101523.41;4828605;29;115109;-79
2023/08/05 02:51:08;;;;;;;;;;;;;;;19.67;56.02;101518.94;4831827;29;124483;-78
2023/08/05 02:53:35;;;;;;;;;;;;;;;19.64;55.99;101515.47;4830759;29;124196;-79
2023/08/05 02:56:02;;;;;;;;;;;;;;;19.64;55.88;101520.84;4825587;29;114278;-78
2023/08/05 02:58:29;;;;;;;;;;;;;;;19.64;56.01;101520.84;4851584;28;115639;-79
2023/08/05 03:01:04;;;;;;;;;;;;;;;19.62;55.91;101517.41;4830925;29;124892;-79
2023/08/05 03:03:30;;;;;;;;;;;;;;;19.60;56.03;101513.97;4842522;29;123775;-79
2023/08/05 03:05:59;;;;;;;;;;;;;;;19.57;55.91;101519.59;4833136;29;114589;-78
2023/08/05 03:08:26;;;;;;;;;;;;;;;19.56;55.99;101517.88;4850968;29;113240;-78
2023/08/05 03:10:58;;;;;;;;;;;;;;;19.53;56.09;101523.44;4847817;29;122790;-79
2023/08/05 03:13:26;;;;;;;;;;;;;;;19.50;55.91;101518.31;4835626;29;126191;-79
2023/08/05 03:15:55;;;;;;;;;;;;;;;19.47;55.91;101518.53;4832108;29;115261;-79
2023/08/05 03:18:22;;;;;;;;;;;;;;;19.43;55.94;101511.66;4851118;29;113348;-79
2023/08/05 03:20:49;;;;;;;;;;;;;;;19.42;56.01;101515.28;4832064;29;124936;-78
2023/08/05 03:23:17;;;;;;;;;;;;;;;19.39;55.90;101510.16;4832129;29;123738;-79
2023/08/05 03:25:49;;;;;;;;;;;;;;;19.35;56.07;101505.97;4845660;29;114074;-79
2023/08/05 03:28:16;;;;;;;;;;;;;;;19.32;55.94;101503.50;4835458;29;112760;-79
2023/08/05 03:30:48;;;;;;;;;;;;;;;19.29;56.12;101503.72;4833378;29;124467;-79
2023/08/05 03:33:21;;;;;;;;;;;;;;;19.24;56.01;101501.38;4844571;29;123623;-79
2023/08/05 03:35:48;;;;;;;;;;;;;;;19.19;56.12;101504.41;4834374;29;114645;-78
2023/08/05 03:38:18;;;;;;;;;;;;;;;19.18;56.05;101499.97;4833425;29;114217;-78
2023/08/05 03:40:45;;;;;;;;;;;;;;;19.16;56.02;101498.38;4825289;29;123540;-79
2023/08/05 03:43:12;;;;;;;;;;;;;;;19.11;56.18;101487.94;4822303;29;123167;-78
2023/08/05 03:45:39;;;;;;;;;;;;;;;19.06;56.16;101482.03;4836405;29;114679;-78
2023/08/05 03:48:07;;;;;;;;;;;;;;;19.05;56.04;101491.06;4825357;29;113823;-78
2023/08/05 03:50:34;;;;;;;;;;;;;;;19.03;56.28;101476.91;4839480;29;123552;-78
2023/08/05 03:53:01;;;;;;;;;;;;;;;18.99;56.07;101475.41;4840123;29;124130;-78
2023/08/05 03:55:28;;;;;;;;;;;;;;;18.96;56.20;101475.63;4845898;29;113930;-78
2023/08/05 03:57:55;;;;;;;;;;;;;;;18.92;56.11;101484.84;4830591;29;112997;-78
2023/08/05 04:00:22;;;;;;;;;;;;;;;18.90;56.10;101470.69;4816330;29;125106;-78
2023/08/05 04:02:49;;;;;;;;;;;;;;;18.88;56.27;101472.63;4819754;29;124849;-79
2023/08/05 04:05:16;;;;;;;;;;;;;;;18.86;56.19;101470.88;4848185;29;113524;-78
2023/08/05 04:07:43;;;;;;;;;;;;;;;18.83;56.21;101455.00;4833856;29;113707;-78
2023/08/05 04:10:12;;;;;;;;;;;;;;;18.82;56.19;101447.91;4846609;29;124416;-78
2023/08/05 04:12:39;;;;;;;;;;;;;;;18.80;56.46;101439.13;4822358;29;122712;-79
2023/08/05 04:15:11;;;;;;;;;;;;;;;18.78;56.32;101441.03;4833605;29;113865;-78
2023/08/05 04:17:38;;;;;;;;;;;;;;;18.78;56.35;101441.03;4849722;29;113712;-78
2023/08/05 04:20:05;;;;;;;;;;;;;;;18.78;56.33;101441.03;4833554;29;122909;-79
2023/08/05 04:22:34;;;;;;;;;;;;;;;18.79;56.52;101437.34;4832732;29;123985;-78
2023/08/05 04:25:01;;;;;;;;;;;;;;;18.79;56.38;101448.09;4840309;29;114654;-78
2023/08/05 04:27:28;;;;;;;;;;;;;;;18.80;56.42;101460.59;4827802;29;114680;-78
2023/08/05 04:29:55;;;;;;;;;;;;;;;18.80;56.35;101455.22;4833257;29;124364;-79
2023/08/05 04:32:22;;;;;;;;;;;;;;;18.80;56.53;101452.53;4846218;29;123218;-78
2023/08/05 04:34:49;;;;;;;;;;;;;;;18.80;56.54;101455.22;4825101;29;113524;-78
2023/08/05 04:37:18;;;;;;;;;;;;;;;18.81;56.51;101450.72;4828368;29;113791;-78
2023/08/05 04:39:45;;;;;;;;;;;;;;;18.81;56.43;101440.81;4834812;29;124311;-78
2023/08/05 04:42:12;;;;;;;;;;;;;;;18.80;56.39;101433.75;4826234;29;123786;-78
2023/08/05 04:44:40;;;;;;;;;;;;;;;18.80;56.37;101438.25;4824805;29;114919;-78
2023/08/05 04:47:08;;;;;;;;;;;;;;;18.78;56.55;101435.66;4830090;29;112941;-78
2023/08/05 04:49:35;;;;;;;;;;;;;;;18.77;56.55;101425.88;4826202;29;125098;-78
2023/08/05 04:52:06;;;;;;;;;;;;;;;18.76;56.53;101424.19;4822626;29;124322;-78
2023/08/05 04:54:39;;;;;;;;;;;;;;;18.73;56.58;101415.47;4843665;29;114244;-78
2023/08/05 04:57:06;;;;;;;;;;;;;;;18.73;56.64;101416.31;4828190;29;114034;-78
2023/08/05 04:59:33;;;;;;;;;;;;;;;18.73;56.75;101416.31;4825412;29;124634;-79
2023/08/05 05:02:01;;;;;;;;;;;;;;;18.74;56.70;101418.06;4826872;29;123057;-78
2023/08/05 05:04:27;;;;;;;;;;;;;;;18.77;56.63;101419.66;4819998;29;113790;-78
2023/08/05 05:06:54;;;;;;;;;;;;;;;18.79;56.63;101418.56;4829029;29;114575;-78
2023/08/05 05:09:22;;;;;;;;;;;;;;;18.81;56.65;101419.34;4833559;29;124305;-78
2023/08/05 05:11:49;;;;;;;;;;;;;;;18.83;56.61;101401.31;4838688;29;124305;-78
2023/08/05 05:14:16;;;;;;;;;;;;;;;18.83;56.45;101409.38;4845097;29;115116;-79
2023/08/05 05:16:43;;;;;;;;;;;;;;;18.81;56.57;101408.63;4830349;29;114431;-78
2023/08/05 05:19:09;;;;;;;;;;;;;;;18.82;56.79;101404.97;4826866;29;122591;-78
2023/08/05 05:21:36;;;;;;;;;;;;;;;18.83;56.85;101412.03;4848682;29;122851;-78
2023/08/05 05:24:04;;;;;;;;;;;;;;;18.86;56.69;101411.84;4826260;29;113737;-78
2023/08/05 05:26:31;;;;;;;;;;;;;;;18.90;56.74;101411.63;4826276;29;113040;-78
2023/08/05 05:28:57;;;;;;;;;;;;;;;18.92;56.76;101393.59;4822158;29;124198;-78
2023/08/05 05:31:24;;;;;;;;;;;;;;;18.96;56.84;101405.81;4827086;29;124462;-79
2023/08/05 05:33:51;;;;;;;;;;;;;;;18.97;56.67;101400.34;4831809;29;114731;-78
2023/08/05 05:36:18;;;;;;;;;;;;;;;18.99;56.84;101401.09;4829251;29;115234;-78
2023/08/05 05:38:45;;;;;;;;;;;;;;;19.02;56.70;101397.31;4837177;29;123430;-78
2023/08/05 05:41:12;;;;;;;;;;;;;;;19.04;56.72;101398.06;4833504;29;124004;-78
2023/08/05 05:43:39;;;;;;;;;;;;;;;19.06;56.80;101385.38;4839027;29;114363;-78
2023/08/05 05:46:06;;;;;;;;;;;;;;;19.08;56.72;101388.84;4833164;29;113477;-78
2023/08/05 05:48:33;;;;;;;;;;;;;;;19.10;56.90;101394.97;4838858;29;123639;-78
2023/08/05 05:51:00;;;;;;;;;;;;;;;19.14;56.81;101409.88;4823408;29;124520;-78
2023/08/05 05:53:27;;;;;;;;;;;;;;;19.17;56.90;101404.25;4823829;29;113672;-78
2023/08/05 05:55:54;;;;;;;;;;;;;;;19.20;56.77;101398.69;4830699;29;114367;-78
2023/08/05 05:58:21;;;;;;;;;;;;;;;19.23;56.76;101403.84;4830550;29;124168;-79
2023/08/05 06:00:53;;;;;;;;;;;;;;;19.26;56.79;101403.59;4830543;29;125369;-79
2023/08/05 06:03:20;;;;;;;;;;;;;;;19.31;56.96;101408.66;4830201;29;115440;-79
2023/08/05 06:05:50;;;;;;;;;;;;;;;19.36;56.92;101408.28;4830008;29;113795;-78
2023/08/05 06:08:17;;;;;;;;;;;;;;;19.38;56.82;101396.50;4847886;29;125142;-78
2023/08/05 06:10:44;;;;;;;;;;;;;;;19.41;56.81;101395.41;4838794;29;124354;-79
2023/08/05 06:13:11;;;;;;;;;;;;;;;19.45;56.97;101402.25;4837687;29;113247;-79
2023/08/05 06:15:41;;;;;;;;;;;;;;;19.49;57.04;101401.06;4826602;29;113265;-78
2023/08/05 06:18:09;;;;;;;;;;;;;;;19.55;56.94;101402.44;4837341;29;123412;-78
2023/08/05 06:20:36;;;;;;;;;;;;;;;19.60;56.93;101398.44;4838283;29;122839;-78
2023/08/05 06:23:03;;;;;;;;;;;;;;;19.65;56.87;101398.09;4837981;29;114613;-78
2023/08/05 06:25:30;;;;;;;;;;;;;;;19.70;56.96;101389.69;4834973;29;111833;-79
2023/08/05 06:27:57;;;;;;;;;;;;;;;19.76;57.11;101383.88;4829929;29;124305;-79
2023/08/05 06:30:24;;;;;;;;;;;;;;;19.84;57.06;101386.84;4828882;29;124363;-79
2023/08/05 06:32:51;;;;;;;;;;;;;;;19.92;57.16;101387.13;4830731;29;114642;-79
2023/08/05 06:35:18;;;;;;;;;;;;;;;20.01;57.13;101375.66;4843327;29;112618;-79
2023/08/05 06:37:45;;;;;;;;;;;;;;;20.07;57.06;101371.66;4826132;29;123796;-78
2023/08/05 06:40:12;;;;;;;;;;;;;;;20.14;57.08;101372.06;4851878;29;123408;-79
2023/08/05 06:42:39;;;;;;;;;;;;;;;20.20;57.05;101376.94;4837779;29;113646;-80
2023/08/05 06:45:06;;;;;;;;;;;;;;;20.28;57.04;101368.28;4827292;29;113965;-80
2023/08/05 06:47:33;;;;;;;;;;;;;;;20.34;57.16;101368.69;4828167;29;124531;-79
2023/08/05 06:50:02;;;;;;;;;;;;;;;20.41;57.04;101364.50;4833694;29;123323;-80
2023/08/05 06:52:29;;;;;;;;;;;;;;;20.47;56.92;101368.53;4831255;29;115799;-80
2023/08/05 06:55:00;;;;;;;;;;;;;;;20.50;56.90;101365.63;4821820;29;113535;-79
2023/08/05 06:57:27;;;;;;;;;;;;;;;20.53;56.86;101367.19;4835028;29;123349;-79
2023/08/05 06:59:54;;;;;;;;;;;;;;;20.55;56.79;101362.56;4824880;29;124509;-79
2023/08/05 07:02:21;;;;;;;;;;;;;;;20.60;56.92;101368.47;4827187;29;114228;-79
2023/08/05 07:04:48;;;;;;;;;;;;;;;20.65;56.95;101360.91;4827385;29;113699;-79
2023/08/05 07:07:15;;;;;;;;;;;;;;;20.72;57.12;101354.06;4827838;29;124727;-80
2023/08/05 07:09:42;;;;;;;;;;;;;;;20.78;57.08;101356.25;4830522;29;122096;-80
2023/08/05 07:12:09;;;;;;;;;;;;;;;20.86;57.08;101357.47;4823025;29;113945;-80
2023/08/05 07:14:36;;;;;;;;;;;;;;;20.95;57.08;101362.13;4829695;29;112681;-80
2023/08/05 07:17:04;;;;;;;;;;;;;;;21.02;57.13;101360.66;4832086;29;124232;-79
2023/08/05 07:19:30;;;;;;;;;;;;;;;21.10;56.92;101360.03;4833114;29;123961;-79
2023/08/05 07:21:57;;;;;;;;;;;;;;;21.12;56.90;101358.91;4830362;29;112653;-79
2023/08/05 07:24:24;;;;;;;;;;;;;;;21.13;56.67;101355.22;4828450;29;111815;-79
2023/08/05 07:26:51;;;;;;;;;;;;;;;21.14;56.50;101353.41;4826607;29;124048;-79
2023/08/05 07:29:18;;;;;;;;;;;;;;;21.15;56.76;101353.28;4832768;29;123627;-80
2023/08/05 07:31:45;;;;;;;;;;;;;;;21.15;56.71;101347.88;4829605;29;114344;-80
2023/08/05 07:34:13;;;;;;;;;;;;;;;21.18;56.90;101353.00;4833642;29;113408;-79
2023/08/05 07:36:41;;;;;;;;;;;;;;;21.23;56.85;101349.06;4831504;29;124141;-79
2023/08/05 07:39:09;;;;;;;;;;;;;;;21.29;56.86;101349.44;4844275;29;123889;-80
2023/08/05 07:41:36;;;;;;;;;;;;;;;21.37;56.96;101338.88;4828246;29;115571;-79
2023/08/05 07:44:04;;;;;;;;;;;;;;;21.46;56.97;101340.00;4832695;29;114515;-79
2023/08/05 07:46:31;;;;;;;;;;;;;;;21.53;56.89;101340.31;4834840;29;124828;-79
2023/08/05 07:48:59;;;;;;;;;;;;;;;21.60;56.90;101325.34;4842855;29;123589;-79
2023/08/05 07:51:28;;;;;;;;;;;;;;;21.67;56.88;101325.69;4834886;29;115784;-79
2023/08/05 07:53:57;;;;;;;;;;;;;;;21.74;56.76;101318.81;4849244;29;114006;-79
2023/08/05 07:56:24;;;;;;;;;;;;;;;21.82;56.90;101319.00;4820998;29;125743;-79
2023/08/05 07:58:52;;;;;;;;;;;;;;;22.02;57.10;101327.22;4827979;29;125846;-79
2023/08/05 08:01:22;;;;;;;;;;;;;;;22.20;57.19;101312.13;4824121;29;115265;-79
2023/08/05 08:03:53;;;;;;;;;;;;;;;22.38;57.18;101315.13;4825842;29;113509;-79
2023/08/05 08:06:21;;;;;;;;;;;;;;;22.55;57.13;101310.94;4823542;29;123697;-79
2023/08/05 08:08:49;;;;;;;;;;;;;;;22.71;56.98;101308.56;4839694;29;122955;-79
2023/08/05 08:11:16;;;;;;;;;;;;;;;22.85;57.03;101301.06;4833274;29;115838;-79
2023/08/05 08:13:43;;;;;;;;;;;;;;;22.97;56.93;101294.56;4834976;29;111804;-79
2023/08/05 08:16:10;;;;;;;;;;;;;;;23.04;56.52;101293.06;4823696;29;124475;-79
2023/08/05 08:18:37;;;;;;;;;;;;;;;23.12;56.40;101293.19;4834930;29;123428;-78
2023/08/05 08:21:07;;;;;;;;;;;;;;;23.20;56.38;101294.34;4833143;29;114098;-79
2023/08/05 08:23:34;;;;;;;;;;;;;;;23.25;56.29;101297.50;4835943;29;113267;-79
2023/08/05 08:26:01;;;;;;;;;;;;;;;23.33;56.32;101289.53;4830269;29;124264;-79
2023/08/05 08:28:27;;;;;;;;;;;;;;;23.40;56.37;101284.41;4849608;29;122719;-79
2023/08/05 08:30:55;;;;;;;;;;;;;;;23.42;56.06;101277.88;4826477;29;114470;-79
2023/08/05 08:33:23;;;;;;;;;;;;;;;23.46;56.08;101268.47;4822550;29;115058;-79
2023/08/05 08:35:51;;;;;;;;;;;;;;;23.50;55.98;101264.47;4825839;29;123308;-79
2023/08/05 08:38:18;;;;;;;;;;;;;;;23.57;55.88;101266.63;4844826;29;122043;-79
2023/08/05 08:40:49;;;;;;;;;;;;;;;23.64;56.00;101265.03;4839427;29;112969;-79
2023/08/05 08:43:19;;;;;;;;;;;;;;;23.72;55.93;101262.47;4824608;29;113956;-79
2023/08/05 08:45:48;;;;;;;;;;;;;;;23.77;55.93;101260.19;4833154;29;124244;-81
2023/08/05 08:48:15;;;;;;;;;;;;;;;23.82;56.04;101252.50;4833430;29;122871;-80
2023/08/05 08:50:43;;;;;;;;;;;;;;;23.85;55.78;101240.56;4818486;29;113676;-81
2023/08/05 08:53:12;;;;;;;;;;;;;;;23.88;55.63;101238.44;4830899;29;114178;-80
2023/08/05 08:55:42;;;;;;;;;;;;;;;23.94;55.83;101233.41;4826307;29;123964;-80
2023/08/05 08:58:10;;;;;;;;;;;;;;;24.03;55.95;101232.53;4819296;29;124016;-80
2023/08/05 09:00:37;;;;;;;;;;;;;;;24.08;55.88;101224.81;4825379;29;114329;-78
2023/08/05 09:03:04;;;;;;;;;;;;;;;24.14;55.75;101213.41;4834015;29;113768;-78
2023/08/05 09:05:44;;;;;;;;;;;;;;;24.23;55.90;101211.66;4842901;29;124353;-78
2023/08/05 09:08:11;;;;;;;;;;;;;;;24.37;55.67;101223.84;4834758;29;124225;-78
2023/08/05 09:10:38;;;;;;;;;;;;;;;24.41;55.42;101215.28;4836653;29;114220;-78
2023/08/05 09:13:06;;;;;;;;;;;;;;;24.46;55.20;101218.38;4821421;29;112935;-78
2023/08/05 09:15:36;;;;;;;;;;;;;;;24.46;55.36;101212.13;4836115;29;124120;-79
2023/08/05 09:18:04;;;;;;;;;;;;;;;24.45;55.23;101210.41;4851388;29;124585;-79
2023/08/05 09:20:32;;;;;;;;;;;;;;;24.48;55.16;101193.84;4850885;28;115328;-78
2023/08/05 09:23:01;;;;;;;;;;;;;;;24.55;55.13;101195.00;4848483;28;114333;-79
2023/08/05 09:25:32;;;;;;;;;;;;;;;24.58;55.16;101189.28;4831068;29;124469;-79
2023/08/05 09:28:00;;;;;;;;;;;;;;;24.63;55.18;101184.22;4833770;29;122748;-78
2023/08/05 09:30:27;;;;;;;;;;;;;;;24.65;54.85;101184.94;4834625;29;114375;-79
2023/08/05 09:32:54;;;;;;;;;;;;;;;24.68;54.90;101173.81;4833893;29;113138;-79
2023/08/05 09:35:23;;;;;;;;;;;;;;;24.68;54.90;101183.78;4835129;29;123989;-79
2023/08/05 09:37:52;;;;;;;;;;;;;;;24.63;54.40;101181.53;4835906;29;123542;-79
2023/08/05 09:40:21;;;;;;;;;;;;;;;24.63;54.77;101176.09;4832136;29;114915;-79
2023/08/05 09:42:49;;;;;;;;;;;;;;;24.65;54.85;101165.97;4836128;29;112696;-79
2023/08/05 09:45:16;;;;;;;;;;;;;;;24.70;54.82;101159.25;4829171;29;125641;-79
2023/08/05 09:47:46;;;;;;;;;;;;;;;24.72;54.56;101157.25;4827180;29;123221;-79
2023/08/05 09:50:15;;;;;;;;;;;;;;;24.78;54.60;101151.22;4852434;29;113512;-79
2023/08/05 09:52:43;;;;;;;;;;;;;;;24.82;54.49;101144.47;4835102;29;113633;-79
2023/08/05 09:55:11;;;;;;;;;;;;;;;24.88;54.40;101151.97;4826145;29;124279;-79
2023/08/05 09:57:39;;;;;;;;;;;;;;;24.92;54.77;101147.97;4848029;29;124000;-78
2023/08/05 10:00:13;;;;;;;;;;;;;;;24.93;54.34;101146.09;4833186;29;114719;-78
2023/08/05 10:02:41;;;;;;;;;;;;;;;24.88;54.54;101141.13;4833820;29;114293;-79
2023/08/05 10:05:09;;;;;;;;;;;;;;;24.86;54.23;101132.31;4822607;29;123268;-79
2023/08/05 10:07:40;;;;;;;;;;;;;;;24.87;54.05;101128.59;4828508;29;124253;-78
2023/08/05 10:10:08;;;;;;;;;;;;;;;24.80;53.49;101112.09;4850116;28;114575;-79
2023/08/05 10:12:38;;;;;;;;;;;;;;;24.75;53.63;101108.16;4826603;29;114823;-79
2023/08/05 10:15:07;;;;;;;;;;;;;;;24.75;53.90;101108.16;4848503;29;124319;-81
2023/08/05 10:17:37;;;;;;;;;;;;;;;24.80;53.95;101105.84;4835031;29;124425;-78
2023/08/05 10:20:06;;;;;;;;;;;;;;;24.85;53.94;101106.25;4827872;29;113509;-79
2023/08/05 10:22:33;;;;;;;;;;;;;;;24.93;53.99;101106.31;4832184;29;113304;-79
2023/08/05 10:25:00;;;;;;;;;;;;;;;24.98;53.96;101090.44;4836331;29;124612;-78
2023/08/05 10:27:37;;;;;;;;;;;;;;;25.09;54.02;101091.16;4831097;29;124404;-78
2023/08/05 10:30:05;;;;;;;;;;;;;;;25.23;54.12;101083.34;4835378;29;112544;-78
2023/08/05 10:32:34;;;;;;;;;;;;;;;25.36;53.99;101077.50;4835201;29;113877;-78
2023/08/05 10:35:19;;;;;;;;;;;;;;;25.45;54.11;101071.13;4830727;29;123557;-78
2023/08/05 10:37:47;;;;;;;;;;;;;;;25.57;54.24;101071.69;4832715;29;124777;-78
2023/08/05 10:40:34;;;;;;;;;;;;;;;25.63;53.68;101071.03;4832983;29;115004;-78
2023/08/05 10:43:01;;;;;;;;;;;;;;;25.66;53.89;101059.03;4837455;29;114526;-78
2023/08/05 10:45:27;;;;;;;;;;;;;;;25.70;53.48;101059.53;4832242;29;123545;-78
2023/08/05 10:47:54;;;;;;;;;;;;;;;25.68;53.25;101058.88;4831365;29;124029;-78
2023/08/05 10:50:22;;;;;;;;;;;;;;;25.71;53.28;101062.09;4831444;29;114580;-78
2023/08/05 10:52:49;;;;;;;;;;;;;;;25.74;53.72;101050.06;4843394;29;113404;-79
2023/08/05 10:55:23;;;;;;;;;;;;;;;25.78;53.85;101041.41;4831517;29;125149;-79
2023/08/05 10:57:52;;;;;;;;;;;;;;;25.81;53.21;101046.53;4826720;29;124271;-79
2023/08/05 11:00:20;;;;;;;;;;;;;;;25.80;53.18;101036.69;4828799;29;115893;-79
2023/08/05 11:02:49;;;;;;;;;;;;;;;25.76;53.01;101032.59;4847957;29;115222;-79
2023/08/05 11:05:16;;;;;;;;;;;;;;;25.72;53.08;101031.22;4828369;29;124507;-78
2023/08/05 11:07:44;;;;;;;;;;;;;;;25.70;53.11;101027.00;4835214;29;124588;-78
2023/08/05 11:10:12;;;;;;;;;;;;;;;25.72;53.35;101023.09;4831539;29;114375;-78
2023/08/05 11:12:39;;;;;;;;;;;;;;;25.67;53.04;101011.88;4849833;29;115031;-78
2023/08/05 11:15:07;;;;;;;;;;;;;;;25.64;53.13;101010.34;4828704;29;124048;-78
2023/08/05 11:17:51;;;;;;;;;;;;;;;25.60;52.88;101006.28;4831867;29;124333;-79
2023/08/05 11:20:18;;;;;;;;;;;;;;;25.52;52.89;101008.09;4845519;28;114912;-79
2023/08/05 11:22:46;;;;;;;;;;;;;;;25.42;53.03;101028.03;4835192;29;113681;-78
2023/08/05 11:25:16;;;;;;;;;;;;;;;25.27;52.51;101032.38;4830125;29;123899;-76
2023/08/05 11:27:49;;;;;;;;;;;;;;;25.03;52.41;101050.16;4832266;29;123896;-76
2023/08/05 11:30:17;;;;;;;;;;;;;;;24.71;52.54;101055.31;4828125;29;114414;-77
2023/08/05 11:32:55;;;;;;;;;;;;;;;24.38;52.39;101049.56;4828345;29;113061;-76
2023/08/05 11:35:26;;;;;;;;;;;;;;;24.08;52.60;101035.41;4832752;29;123340;-77
2023/08/05 11:37:53;;;;;;;;;;;;;;;23.85;52.79;101035.81;4834984;29;124452;-77
2023/08/05 11:40:21;;;;;;;;;;;;;;;23.70;53.11;101031.88;4830693;29;114376;-78
2023/08/05 11:42:48;;;;;;;;;;;;;;;23.57;53.24;101015.16;4831880;29;114142;-77
2023/08/05 11:45:15;;;;;;;;;;;;;;;23.47;53.41;101013.34;4848922;29;124150;-77
2023/08/05 11:47:43;;;;;;;;;;;;;;;23.42;53.71;101012.94;4834728;29;123932;-78
2023/08/05 11:50:11;;;;;;;;;;;;;;;23.39;53.78;101010.53;4829091;29;115352;-78
2023/08/05 11:52:39;;;;;;;;;;;;;;;23.35;53.83;101011.81;4826222;29;115246;-78
2023/08/05 11:55:07;;;;;;;;;;;;;;;23.34;53.84;101012.84;4821040;29;123189;-78
2023/08/05 11:57:34;;;;;;;;;;;;;;;23.31;53.93;101016.66;4830150;29;124932;-78
2023/08/05 12:00:05;;;;;;;;;;;;;;;23.28;53.99;101005.31;4823203;29;114544;-78
2023/08/05 12:02:34;;;;;;;;;;;;;;;23.26;53.90;101001.91;4830155;29;98016;-77
2023/08/05 12:05:02;;;;;;;;;;;;;;;23.22;53.94;100995.09;4830130;29;125288;-78
2023/08/05 12:07:38;;;;;;;;;;;;;;;23.19;54.13;100992.69;4832650;28;124401;-77
2023/08/05 12:10:07;;;;;;;;;;;;;;;23.19;54.36;100993.56;4829390;29;114809;-77
2023/08/05 12:12:35;;;;;;;;;;;;;;;23.20;53.99;100997.09;4827221;29;114043;-78
2023/08/05 12:15:13;;;;;;;;;;;;;;;23.11;54.14;100994.28;4830643;29;123861;-77
2023/08/05 12:17:44;;;;;;;;;;;;;;;23.01;54.10;100993.41;4824307;29;124729;-78
2023/08/05 12:20:11;;;;;;;;;;;;;;;22.96;54.13;100994.84;4821723;29;113559;-77
2023/08/05 12:22:38;;;;;;;;;;;;;;;22.91;54.18;100998.84;4849267;29;113268;-78
2023/08/05 12:25:05;;;;;;;;;;;;;;;22.87;54.21;100996.59;4826210;29;123556;-77
2023/08/05 12:27:32;;;;;;;;;;;;;;;22.82;54.30;100998.88;4827647;29;123624;-77
2023/08/05 12:29:59;;;;;;;;;;;;;;;22.79;54.30;100982.94;4829034;29;113863;-76
2023/08/05 12:32:26;;;;;;;;;;;;;;;22.72;54.31;100988.09;4831695;29;113905;-77